Time;durP1;ratioP1;P1;durP2;ratioP2;P2;SDS_P1;SDS_P2;PMS_P1;PMS_P2;Temp;Humidity;BMP_temperature;BMP_pressure;BME280_temperature;BME280_humidity;BME280_pressure;Samples;Min_cycle;Max_cycle;Signal;HPM_P1;HPM_P2
2022/09/12 00:02:25;;;;;;;20.45;12.77;;;10.90;99.90;;;;;;5029872;28;20117;-74
2022/09/12 00:04:51;;;;;;;21.42;15.40;;;10.90;99.90;;;;;;5029509;28;20032;-73
2022/09/12 00:07:16;;;;;;;17.73;13.57;;;10.90;99.90;;;;;;5028439;28;20036;-73
2022/09/12 00:09:42;;;;;;;20.20;15.13;;;10.90;99.90;;;;;;5029483;28;20026;-73
2022/09/12 00:12:08;;;;;;;21.60;14.73;;;10.90;99.90;;;;;;5049561;28;20059;-73
2022/09/12 00:14:34;;;;;;;20.75;13.50;;;10.90;99.90;;;;;;5044445;28;20376;-72
2022/09/12 00:17:00;;;;;;;20.65;13.25;;;11.00;99.90;;;;;;5029530;28;20045;-73
2022/09/12 00:19:27;;;;;;;21.65;13.80;;;10.90;99.90;;;;;;5029191;28;20093;-73
2022/09/12 00:21:53;;;;;;;18.15;13.38;;;10.90;99.90;;;;;;5031829;28;20025;-72
2022/09/12 00:24:19;;;;;;;18.08;12.88;;;10.90;99.90;;;;;;5031319;28;20071;-73
2022/09/12 00:26:44;;;;;;;17.15;12.07;;;10.90;99.90;;;;;;5032899;28;20491;-73
2022/09/12 00:29:15;;;;;;;17.00;13.02;;;10.90;99.90;;;;;;5032298;28;20025;-72
2022/09/12 00:31:41;;;;;;;14.65;12.30;;;10.90;99.90;;;;;;5032767;28;20116;-73
2022/09/12 00:34:08;;;;;;;20.90;14.98;;;10.80;99.90;;;;;;5032562;28;20064;-73
2022/09/12 00:36:33;;;;;;;18.90;13.13;;;10.80;99.90;;;;;;5031488;28;20040;-72
2022/09/12 00:38:59;;;;;;;20.45;13.25;;;10.80;99.90;;;;;;5032277;28;20021;-73
2022/09/12 00:41:27;;;;;;;15.90;12.48;;;10.80;99.90;;;;;;5032551;28;20018;-73
2022/09/12 00:43:55;;;;;;;16.52;12.80;;;10.70;99.90;;;;;;5032140;28;20021;-73
2022/09/12 00:46:42;;;;;;;18.48;12.45;;;10.70;99.90;;;;;;5032078;28;20022;-73
2022/09/12 00:49:27;;;;;;;16.17;12.32;;;10.70;99.90;;;;;;5035208;28;20018;-73
2022/09/12 00:52:00;;;;;;;19.17;12.77;;;10.70;99.90;;;;;;5031147;28;20509;-73
2022/09/12 00:54:32;;;;;;;16.23;13.02;;;10.60;99.90;;;;;;5032082;28;20070;-73
2022/09/12 00:57:02;;;;;;;14.95;11.45;;;10.60;99.90;;;;;;5031169;28;20025;-73
2022/09/12 00:59:32;;;;;;;16.20;12.50;;;10.60;99.90;;;;;;5031473;28;20128;-73
2022/09/12 01:01:58;;;;;;;17.65;12.65;;;10.60;99.90;;;;;;5032321;28;20029;-73
2022/09/12 01:04:25;;;;;;;15.80;12.13;;;10.50;99.90;;;;;;5031774;28;20022;-72
2022/09/12 01:06:53;;;;;;;17.02;12.50;;;10.50;99.90;;;;;;5031001;28;20474;-73
2022/09/12 01:09:21;;;;;;;20.52;11.80;;;10.50;99.90;;;;;;5030554;28;20539;-73
2022/09/12 01:11:48;;;;;;;19.02;13.00;;;10.50;99.90;;;;;;5048533;28;20402;-73
2022/09/12 01:14:15;;;;;;;17.52;12.10;;;10.40;99.90;;;;;;5045066;28;20053;-73
2022/09/12 01:16:43;;;;;;;17.20;11.85;;;10.40;99.90;;;;;;5030754;28;20026;-72
2022/09/12 01:19:46;;;;;;;18.20;12.98;;;10.40;99.90;;;;;;5031712;28;20081;-72
2022/09/12 01:22:42;;;;;;;20.73;12.43;;;10.40;99.90;;;;;;5032264;28;20389;-72
2022/09/12 01:25:17;;;;;;;16.58;13.13;;;10.50;99.90;;;;;;5031569;28;20037;-73
2022/09/12 01:28:17;;;;;;;16.98;12.63;;;10.50;99.90;;;;;;5032006;28;20018;-72
2022/09/12 01:30:54;;;;;;;18.02;13.38;;;10.50;99.90;;;;;;5031228;28;20026;-73
2022/09/12 01:33:38;;;;;;;17.23;13.50;;;10.50;99.90;;;;;;5031126;28;20463;-73
2022/09/12 01:36:19;;;;;;;19.95;13.10;;;10.50;99.90;;;;;;5031442;28;20061;-73
2022/09/12 01:39:00;;;;;;;19.38;13.10;;;10.50;99.90;;;;;;5031892;28;20396;-73
2022/09/12 01:41:39;;;;;;;20.45;13.20;;;10.50;99.90;;;;;;5031576;28;20044;-72
2022/09/12 01:44:29;;;;;;;19.45;11.90;;;10.50;99.90;;;;;;5031245;28;20098;-72
2022/09/12 01:47:09;;;;;;;20.40;13.73;;;10.50;99.90;;;;;;5031691;28;20021;-73
2022/09/12 01:49:55;;;;;;;22.20;13.55;;;10.50;99.90;;;;;;5034538;28;20045;-72
2022/09/12 01:52:49;;;;;;;20.10;13.32;;;10.50;99.90;;;;;;5035003;28;20088;-72
2022/09/12 01:55:21;;;;;;;18.55;13.13;;;10.40;99.90;;;;;;5031233;28;20040;-73
2022/09/12 01:57:59;;;;;;;22.15;12.95;;;10.40;99.90;;;;;;5031579;28;20493;-73
2022/09/12 02:00:25;;;;;;;17.77;13.68;;;10.30;99.90;;;;;;5031170;28;20118;-72
2022/09/12 02:03:01;;;;;;;17.90;12.88;;;10.30;99.90;;;;;;5031251;28;20429;-73
2022/09/12 02:05:33;;;;;;;18.50;12.35;;;10.30;99.90;;;;;;5030899;28;20062;-73
2022/09/12 02:08:09;;;;;;;19.60;13.30;;;10.30;99.90;;;;;;5031347;28;20057;-73
2022/09/12 02:10:46;;;;;;;21.23;14.27;;;10.40;99.90;;;;;;5038980;28;20017;-73
2022/09/12 02:13:30;;;;;;;18.90;13.20;;;10.40;99.90;;;;;;5051125;28;20113;-74
2022/09/12 02:16:03;;;;;;;18.02;12.85;;;10.40;99.90;;;;;;5031423;28;20138;-72
2022/09/12 02:18:31;;;;;;;20.02;12.48;;;10.50;99.90;;;;;;5031175;28;20588;-73
2022/09/12 02:20:59;;;;;;;19.33;13.27;;;10.40;99.90;;;;;;5030798;28;20026;-73
2022/09/12 02:23:28;;;;;;;15.82;12.80;;;10.40;99.90;;;;;;5031030;28;20048;-73
2022/09/12 02:25:59;;;;;;;22.60;14.68;;;10.40;99.90;;;;;;5031189;28;20022;-72
2022/09/12 02:28:29;;;;;;;18.52;13.43;;;10.40;99.90;;;;;;5030854;28;20030;-73
2022/09/12 02:31:13;;;;;;;21.08;14.00;;;10.40;99.90;;;;;;5030623;28;20082;-73
2022/09/12 02:34:29;;;;;;;20.08;14.07;;;10.40;99.90;;;;;;5031066;28;20029;-72
2022/09/12 02:37:16;;;;;;;18.58;13.55;;;10.40;99.90;;;;;;5039598;28;20030;-73
2022/09/12 02:39:42;;;;;;;23.23;16.20;;;10.50;99.90;;;;;;5030506;28;20030;-72
2022/09/12 02:42:08;;;;;;;18.85;13.68;;;10.50;99.90;;;;;;5029559;28;20032;-73
2022/09/12 02:44:35;;;;;;;18.77;13.88;;;10.40;99.90;;;;;;5029369;28;20146;-73
2022/09/12 02:47:31;;;;;;;18.30;12.13;;;10.40;99.90;;;;;;5030622;28;20092;-74
2022/09/12 02:49:59;;;;;;;18.55;13.90;;;10.40;99.90;;;;;;5038881;28;20022;-72
2022/09/12 02:52:26;;;;;;;46.72;36.53;;;10.50;99.90;;;;;;5030689;28;20033;-73
2022/09/12 02:54:53;;;;;;;46.42;33.13;;;10.40;99.90;;;;;;5029001;28;20025;-73
2022/09/12 02:57:20;;;;;;;27.48;15.32;;;10.40;99.90;;;;;;5030817;28;20021;-73
2022/09/12 02:59:47;;;;;;;18.27;13.60;;;10.40;99.90;;;;;;5030082;28;20136;-73
2022/09/12 03:02:27;;;;;;;19.02;14.00;;;10.30;99.90;;;;;;5030663;28;20024;-73
2022/09/12 03:05:13;;;;;;;19.58;14.57;;;10.30;99.90;;;;;;5030301;28;20022;-72
2022/09/12 03:07:53;;;;;;;18.40;13.40;;;10.30;99.90;;;;;;5029505;28;20103;-72
2022/09/12 03:10:36;;;;;;;17.90;13.63;;;10.20;99.90;;;;;;5036385;28;20036;-73
2022/09/12 03:13:23;;;;;;;18.33;13.70;;;10.20;99.90;;;;;;5050362;28;20077;-72
2022/09/12 03:16:15;;;;;;;18.02;13.27;;;10.20;99.90;;;;;;5028985;28;20033;-72
2022/09/12 03:18:54;;;;;;;18.50;14.02;;;10.20;99.90;;;;;;5030280;28;20022;-72
2022/09/12 03:21:26;;;;;;;20.45;14.23;;;10.20;99.90;;;;;;5047838;28;20021;-72
2022/09/12 03:23:55;;;;;;;;;;;10.10;99.90;;;;;;5050630;28;20028;-72
2022/09/12 03:26:37;;;;;;;22.58;13.23;;;10.10;99.90;;;;;;5029007;28;19905;-74
2022/09/12 03:29:05;;;;;;;21.63;15.20;;;10.20;99.90;;;;;;5028540;28;20026;-73
2022/09/12 03:31:31;;;;;;;19.73;13.25;;;10.10;99.90;;;;;;5029487;28;20068;-73
2022/09/12 03:33:59;;;;;;;20.17;13.52;;;10.10;99.90;;;;;;5029460;28;20037;-72
2022/09/12 03:36:27;;;;;;;17.15;13.70;;;10.10;99.90;;;;;;5029611;28;20021;-73
2022/09/12 03:38:53;;;;;;;16.77;13.50;;;10.00;99.90;;;;;;5029624;28;20472;-73
2022/09/12 03:41:19;;;;;;;20.27;13.90;;;10.00;99.90;;;;;;5030064;28;20057;-73
2022/09/12 03:43:45;;;;;;;15.93;13.10;;;10.00;99.90;;;;;;5029928;28;20029;-73
2022/09/12 03:46:11;;;;;;;21.08;13.70;;;10.00;99.90;;;;;;5029655;28;20535;-74
2022/09/12 03:48:37;;;;;;;16.20;12.85;;;10.10;99.90;;;;;;5032155;28;20033;-75
2022/09/12 03:51:04;;;;;;;17.27;12.85;;;10.00;99.90;;;;;;5029974;28;20391;-76
2022/09/12 03:53:30;;;;;;;15.93;12.55;;;10.00;99.90;;;;;;5028108;28;20044;-72
2022/09/12 03:55:57;;;;;;;14.88;12.50;;;10.00;99.90;;;;;;5029548;28;20026;-73
2022/09/12 03:58:23;;;;;;;15.85;12.13;;;9.90;99.90;;;;;;5033077;28;20403;-72
2022/09/12 04:00:49;;;;;;;18.05;12.13;;;9.90;99.90;;;;;;5031638;28;20025;-73
2022/09/12 04:03:15;;;;;;;16.20;12.85;;;9.80;99.90;;;;;;5033347;28;20070;-73
2022/09/12 04:05:41;;;;;;;16.75;12.25;;;9.80;99.90;;;;;;5032725;28;20026;-73
2022/09/12 04:08:06;;;;;;;15.80;11.50;;;9.80;99.90;;;;;;5033214;28;20033;-73
2022/09/12 04:10:32;;;;;;;15.80;11.15;;;9.80;99.90;;;;;;5040858;28;20033;-72
2022/09/12 04:12:57;;;;;;;15.52;11.65;;;9.80;99.90;;;;;;5053022;28;20037;-73
2022/09/12 04:15:23;;;;;;;15.27;11.02;;;9.80;99.90;;;;;;5041043;28;20029;-73
2022/09/12 04:17:49;;;;;;;13.80;11.20;;;9.80;99.90;;;;;;5033057;28;20104;-73
2022/09/12 04:20:14;;;;;;;16.90;11.45;;;9.70;99.90;;;;;;5031151;28;20064;-73
2022/09/12 04:22:40;;;;;;;15.05;11.40;;;9.70;99.90;;;;;;5032956;28;20394;-74
2022/09/12 04:25:06;;;;;;;15.30;11.35;;;9.60;99.90;;;;;;5032401;28;20057;-72
2022/09/12 04:27:32;;;;;;;15.00;10.63;;;9.70;99.90;;;;;;5032973;28;20025;-72
2022/09/12 04:29:59;;;;;;;14.52;12.07;;;9.70;99.90;;;;;;5032134;28;20502;-72
2022/09/12 04:32:24;;;;;;;16.38;11.63;;;9.70;99.90;;;;;;5032770;28;20102;-73
2022/09/12 04:34:51;;;;;;;16.80;11.77;;;9.70;99.90;;;;;;5031878;28;20037;-72
2022/09/12 04:37:17;;;;;;;17.42;12.60;;;9.70;99.90;;;;;;5032815;28;20036;-73
2022/09/12 04:39:42;;;;;;;13.70;11.88;;;9.70;99.90;;;;;;5032217;28;20405;-73
2022/09/12 04:42:08;;;;;;;16.83;11.15;;;9.70;99.90;;;;;;5032649;28;20033;-73
2022/09/12 04:44:33;;;;;;;13.18;11.60;;;9.70;99.90;;;;;;5032169;28;20104;-72
2022/09/12 04:46:59;;;;;;;14.30;11.32;;;9.70;99.90;;;;;;5032702;28;20473;-72
2022/09/12 04:49:25;;;;;;;17.38;11.57;;;9.70;99.90;;;;;;5036339;28;20385;-73
2022/09/12 04:51:52;;;;;;;15.20;10.68;;;9.70;99.90;;;;;;5032584;28;20037;-73
2022/09/12 04:54:18;;;;;;;16.60;11.88;;;9.80;99.90;;;;;;5032184;28;20028;-72
2022/09/12 04:56:47;;;;;;;14.35;11.38;;;9.70;99.90;;;;;;5031332;28;20021;-73
2022/09/12 04:59:15;;;;;;;12.50;10.63;;;9.70;99.90;;;;;;5031748;28;20049;-73
2022/09/12 05:01:41;;;;;;;13.00;10.48;;;9.80;99.90;;;;;;5032176;28;20022;-72
2022/09/12 05:04:09;;;;;;;16.73;11.73;;;9.80;99.90;;;;;;5030682;28;20044;-73
2022/09/12 05:06:37;;;;;;;14.68;10.35;;;9.70;99.90;;;;;;5034279;28;20026;-73
2022/09/12 05:09:05;;;;;;;12.73;9.77;;;9.70;99.90;;;;;;5032085;28;20415;-72
2022/09/12 05:11:34;;;;;;;14.38;10.55;;;9.70;99.90;;;;;;5048772;28;20041;-73
2022/09/12 05:14:00;;;;;;;13.85;10.20;;;9.70;99.90;;;;;;5050313;28;20032;-73
2022/09/12 05:16:27;;;;;;;14.38;9.95;;;9.80;99.90;;;;;;5031905;28;20026;-74
2022/09/12 05:18:55;;;;;;;12.48;9.65;;;9.80;99.90;;;;;;5032052;28;20026;-72
2022/09/12 05:21:22;;;;;;;12.68;9.60;;;9.80;99.90;;;;;;5031595;28;20051;-73
2022/09/12 05:23:51;;;;;;;11.23;9.57;;;9.80;99.90;;;;;;5030499;28;20416;-72
2022/09/12 05:26:17;;;;;;;11.48;9.20;;;9.80;99.90;;;;;;5032182;28;20116;-73
2022/09/12 05:28:43;;;;;;;12.05;8.85;;;9.80;99.90;;;;;;5050130;28;20032;-72
2022/09/12 05:31:19;;;;;;;9.75;8.00;;;9.80;99.90;;;;;;5043811;28;20045;-73
2022/09/12 05:33:47;;;;;;;14.57;9.15;;;9.80;99.90;;;;;;5044779;28;20398;-75
2022/09/12 05:36:18;;;;;;;13.20;9.20;;;9.90;99.90;;;;;;5049186;28;20485;-73
2022/09/12 05:38:44;;;;;;;12.82;9.23;;;10.00;99.90;;;;;;5049057;28;20021;-73
2022/09/12 05:41:13;;;;;;;11.20;9.15;;;10.10;99.90;;;;;;5050561;28;20492;-73
2022/09/12 05:43:41;;;;;;;11.38;8.20;;;10.10;99.90;;;;;;5049201;27;20076;-72
2022/09/12 05:46:12;;;;;;;12.77;8.73;;;10.10;99.90;;;;;;5039113;28;20028;-73
2022/09/12 05:48:39;;;;;;;12.55;9.20;;;10.00;99.90;;;;;;5044992;28;20014;-73
2022/09/12 05:51:08;;;;;;;10.30;8.73;;;10.10;99.90;;;;;;5030351;28;20065;-74
2022/09/12 05:53:36;;;;;;;11.65;7.85;;;10.20;99.90;;;;;;5029772;28;20017;-74
2022/09/12 05:56:10;;;;;;;11.27;8.32;;;10.10;99.90;;;;;;5031253;28;20026;-74
2022/09/12 05:58:39;;;;;;;10.90;7.70;;;10.10;99.90;;;;;;5031127;28;20053;-75
2022/09/12 06:01:07;;;;;;;11.40;8.65;;;10.10;99.90;;;;;;5031235;28;20109;-73
2022/09/12 06:03:41;;;;;;;13.00;8.38;;;10.10;99.90;;;;;;5029938;28;20049;-73
2022/09/12 06:06:07;;;;;;;11.95;8.32;;;10.10;99.90;;;;;;5038733;28;20478;-73
2022/09/12 06:08:35;;;;;;;12.90;9.18;;;10.10;99.90;;;;;;5040815;28;20026;-74
2022/09/12 06:11:05;;;;;;;13.35;8.30;;;10.20;99.90;;;;;;5036578;28;20033;-74
2022/09/12 06:13:39;;;;;;;9.27;8.05;;;10.20;99.90;;;;;;5029704;28;20025;-74
2022/09/12 06:16:13;;;;;;;9.00;7.40;;;10.30;99.90;;;;;;5031126;28;20498;-74
2022/09/12 06:18:40;;;;;;;13.15;8.27;;;10.40;99.90;;;;;;5030798;28;20025;-73
2022/09/12 06:21:07;;;;;;;13.25;7.75;;;10.50;99.90;;;;;;5029833;28;20150;-73
2022/09/12 06:23:33;;;;;;;12.05;7.32;;;10.60;99.90;;;;;;5040811;28;20025;-74
2022/09/12 06:25:59;;;;;;;10.10;7.80;;;10.70;99.90;;;;;;5048779;28;20021;-74
2022/09/12 06:28:25;;;;;;;11.07;7.90;;;10.60;99.90;;;;;;5049890;28;20025;-74
2022/09/12 06:30:51;;;;;;;10.10;7.82;;;10.50;99.90;;;;;;5047417;28;20026;-74
2022/09/12 06:33:17;;;;;;;11.23;8.05;;;10.50;99.90;;;;;;5040399;28;20025;-74
2022/09/12 06:35:42;;;;;;;10.48;7.40;;;10.50;99.90;;;;;;5049129;28;20024;-74
2022/09/12 06:38:08;;;;;;;12.05;8.38;;;10.50;99.90;;;;;;5049379;28;20023;-74
2022/09/12 06:40:34;;;;;;;11.52;7.35;;;10.50;99.90;;;;;;5048747;28;20085;-74
2022/09/12 06:43:00;;;;;;;11.57;7.78;;;10.40;99.90;;;;;;5047724;28;20033;-74
2022/09/12 06:45:26;;;;;;;17.65;8.20;;;10.40;99.90;;;;;;5049384;28;20062;-74
2022/09/12 06:47:51;;;;;;;10.00;7.90;;;10.50;99.90;;;;;;5047696;28;20069;-75
2022/09/12 06:50:17;;;;;;;11.95;6.65;;;10.50;99.90;;;;;;5030381;28;20060;-74
2022/09/12 06:52:43;;;;;;;8.00;6.95;;;10.50;99.90;;;;;;5030597;28;20390;-73
2022/09/12 06:55:09;;;;;;;11.43;7.18;;;10.60;99.90;;;;;;5030590;28;20026;-74
2022/09/12 06:57:37;;;;;;;9.70;8.15;;;10.60;99.90;;;;;;5029281;28;20018;-74
2022/09/12 07:00:06;;;;;;;13.80;8.82;;;10.60;99.90;;;;;;5030478;28;20073;-73
2022/09/12 07:02:32;;;;;;;8.75;6.82;;;10.70;99.90;;;;;;5030404;28;20025;-74
2022/09/12 07:04:57;;;;;;;16.65;7.45;;;10.70;99.90;;;;;;5029292;28;20037;-74
2022/09/12 07:07:23;;;;;;;13.73;7.93;;;10.80;99.90;;;;;;5030292;28;20017;-74
2022/09/12 07:09:49;;;;;;;12.23;7.22;;;10.90;99.90;;;;;;5033775;28;20029;-74
2022/09/12 07:12:15;;;;;;;9.75;7.63;;;11.10;99.90;;;;;;5048847;28;20029;-74
2022/09/12 07:14:40;;;;;;;10.55;7.22;;;11.30;99.90;;;;;;5050199;28;20021;-74
2022/09/12 07:17:07;;;;;;;9.70;6.78;;;11.50;99.90;;;;;;5050138;28;20100;-74
2022/09/12 07:19:33;;;;;;;12.00;7.28;;;11.60;99.90;;;;;;5050008;28;20021;-74
2022/09/12 07:21:59;;;;;;;10.15;6.22;;;11.70;99.90;;;;;;5048887;28;20021;-74
2022/09/12 07:24:25;;;;;;;10.27;6.47;;;11.50;99.90;;;;;;5050186;28;20112;-74
2022/09/12 07:26:50;;;;;;;9.20;6.68;;;11.60;99.90;;;;;;5050029;28;20747;-74
2022/09/12 07:29:16;;;;;;;7.53;5.75;;;11.80;99.90;;;;;;5049743;28;20471;-74
2022/09/12 07:31:42;;;;;;;8.02;6.40;;;11.90;99.90;;;;;;5052027;28;20081;-74
2022/09/12 07:34:08;;;;;;;7.50;5.97;;;12.10;99.90;;;;;;5053530;28;20108;-74
2022/09/12 07:36:33;;;;;;;10.18;5.95;;;12.30;99.90;;;;;;5053672;28;20033;-75
2022/09/12 07:38:59;;;;;;;7.43;6.07;;;12.50;99.90;;;;;;5053398;28;20475;-73
2022/09/12 07:41:27;;;;;;;8.93;5.53;;;12.30;99.90;;;;;;5052173;28;20040;-74
2022/09/12 07:43:54;;;;;;;10.77;6.05;;;12.40;99.90;;;;;;5053205;28;20021;-74
2022/09/12 07:46:21;;;;;;;12.10;6.00;;;12.50;99.90;;;;;;5052189;28;20052;-74
2022/09/12 07:48:51;;;;;;;9.93;6.03;;;12.70;99.90;;;;;;5044937;28;20033;-73
2022/09/12 07:51:17;;;;;;;5.18;4.18;;;12.70;99.90;;;;;;5033333;28;20072;-74
2022/09/12 07:53:43;;;;;;;5.32;4.60;;;12.50;99.90;;;;;;5032086;28;20056;-74
2022/09/12 07:56:10;;;;;;;5.25;4.75;;;12.60;99.90;;;;;;5033375;28;20053;-74
2022/09/12 07:58:37;;;;;;;9.70;5.32;;;12.50;99.90;;;;;;5031672;28;20137;-74
2022/09/12 08:01:05;;;;;;;9.10;4.95;;;12.70;99.90;;;;;;5032198;28;20025;-73
2022/09/12 08:03:30;;;;;;;7.55;4.90;;;12.70;99.90;;;;;;5032960;27;20087;-74
2022/09/12 08:06:03;;;;;;;5.03;4.50;;;12.90;99.90;;;;;;5033270;28;20046;-74
2022/09/12 08:08:28;;;;;;;;;;;13.00;99.90;;;;;;5033518;28;20032;-74
2022/09/12 08:11:04;;;;;;;6.95;4.38;;;13.20;99.90;;;;;;5045901;28;19905;-74
2022/09/12 08:13:31;;;;;;;4.55;4.10;;;13.40;99.90;;;;;;5052948;28;20032;-73
2022/09/12 08:16:02;;;;;;;5.15;3.78;;;13.40;99.90;;;;;;5052983;28;20037;-74
2022/09/12 08:18:29;;;;;;;4.15;3.67;;;13.40;99.90;;;;;;5052622;28;20028;-74
2022/09/12 08:21:02;;;;;;;6.15;3.28;;;13.20;99.90;;;;;;5052978;28;20029;-74
2022/09/12 08:23:28;;;;;;;3.40;3.10;;;12.90;99.90;;;;;;5052687;28;20521;-74
2022/09/12 08:25:55;;;;;;;4.30;2.90;;;12.90;99.90;;;;;;5052870;28;20029;-74
2022/09/12 08:28:21;;;;;;;4.75;2.50;;;13.20;99.90;;;;;;5051441;28;20049;-74
2022/09/12 08:30:46;;;;;;;3.63;2.22;;;13.30;99.90;;;;;;5052559;27;20044;-74
2022/09/12 08:33:12;;;;;;;7.00;2.95;;;13.50;99.90;;;;;;5051363;28;20152;-75
2022/09/12 08:35:37;;;;;;;2.95;2.63;;;13.80;99.90;;;;;;5051541;28;20107;-74
2022/09/12 08:38:03;;;;;;;4.10;3.05;;;13.90;99.90;;;;;;5052685;28;20025;-74
2022/09/12 08:40:29;;;;;;;6.80;2.63;;;13.80;99.90;;;;;;5052801;28;20037;-74
2022/09/12 08:43:23;;;;;;;9.50;2.45;;;13.50;99.90;;;;;;5052769;28;20028;-74
2022/09/12 08:45:56;;;;;;;3.40;2.40;;;13.60;99.90;;;;;;5037046;28;20057;-74
2022/09/12 08:48:22;;;;;;;3.92;2.17;;;14.10;99.90;;;;;;5037629;28;20462;-74
2022/09/12 08:50:47;;;;;;;5.32;2.50;;;14.20;99.90;;;;;;5037255;28;20037;-74
2022/09/12 08:53:20;;;;;;;6.05;2.53;;;14.00;94.20;;;;;;5032606;28;20029;-75
2022/09/12 08:55:52;;;;;;;2.20;1.92;;;13.80;94.70;;;;;;5030941;28;20074;-74
2022/09/12 08:58:19;;;;;;;;;;;13.80;99.90;;;;;;5032779;28;20056;-74
2022/09/12 09:01:03;;;;;;;6.40;2.22;;;13.90;98.50;;;;;;5032310;28;20622;-74
2022/09/12 09:04:00;;;;;;;5.43;2.05;;;14.30;99.90;;;;;;5032403;28;20028;-74
2022/09/12 09:06:41;;;;;;;3.42;2.17;;;14.30;95.30;;;;;;5032375;28;20045;-74
2022/09/12 09:09:52;;;;;;;2.97;2.08;;;14.30;88.20;;;;;;5036578;28;20025;-74
2022/09/12 09:12:47;;;;;;;4.43;1.90;;;14.30;88.00;;;;;;5051052;28;20123;-73
2022/09/12 09:15:35;;;;;;;4.63;2.30;;;14.40;87.10;;;;;;5051260;28;20061;-74
2022/09/12 09:18:22;;;;;;;7.03;2.65;;;14.20;84.70;;;;;;5052329;28;20077;-74
2022/09/12 09:21:03;;;;;;;4.40;2.20;;;14.10;86.80;;;;;;5051706;28;20029;-74
2022/09/12 09:23:32;;;;;;;4.97;2.35;;;14.00;84.30;;;;;;5051579;28;20021;-74
2022/09/12 09:26:06;;;;;;;4.05;2.33;;;13.90;85.70;;;;;;5052076;28;20025;-74
2022/09/12 09:28:38;;;;;;;4.25;2.63;;;13.80;92.00;;;;;;5051705;28;20044;-74
2022/09/12 09:31:09;;;;;;;3.85;2.45;;;13.80;95.90;;;;;;5050094;28;20515;-74
2022/09/12 09:33:36;;;;;;;2.33;2.10;;;13.60;94.30;;;;;;5050391;28;20060;-74
2022/09/12 09:36:21;;;;;;;4.40;2.92;;;13.80;89.00;;;;;;5050329;28;20017;-74
2022/09/12 09:39:03;;;;;;;5.68;2.13;;;14.10;86.60;;;;;;5050558;28;20024;-74
2022/09/12 09:41:53;;;;;;;4.40;1.92;;;14.50;85.20;;;;;;5050797;28;20021;-74
2022/09/12 09:44:19;;;;;;;4.45;2.45;;;14.70;79.80;;;;;;5051266;28;20029;-74
2022/09/12 09:46:49;;;;;;;3.78;2.35;;;14.90;81.40;;;;;;5051906;28;20021;-75
2022/09/12 09:49:16;;;;;;;4.95;2.80;;;14.90;82.60;;;;;;5038586;28;20022;-74
2022/09/12 09:51:42;;;;;;;4.00;2.42;;;14.90;85.10;;;;;;5031874;28;20032;-74
2022/09/12 09:54:22;;;;;;;3.40;2.40;;;14.80;80.80;;;;;;5030614;28;20078;-74
2022/09/12 09:56:47;;;;;;;2.00;1.50;;;14.90;81.30;;;;;;5031467;28;20428;-74
2022/09/12 09:59:32;;;;;;;4.40;2.85;;;15.10;78.80;;;;;;5030482;28;20053;-74
2022/09/12 10:02:02;;;;;;;2.35;1.70;;;15.10;75.20;;;;;;5031454;28;20424;-74
2022/09/12 10:04:38;;;;;;;2.53;2.30;;;15.30;76.10;;;;;;5031576;28;20052;-74
2022/09/12 10:07:04;;;;;;;2.13;1.92;;;15.40;74.90;;;;;;5031398;28;20026;-74
2022/09/12 10:09:31;;;;;;;2.88;1.85;;;15.30;76.20;;;;;;5032924;28;20064;-74
2022/09/12 10:11:58;;;;;;;8.63;2.40;;;14.90;74.40;;;;;;5049841;28;20033;-74
2022/09/12 10:14:33;;;;;;;2.20;1.85;;;15.10;73.70;;;;;;5051138;28;20025;-74
2022/09/12 10:17:00;;;;;;;6.75;2.25;;;15.10;71.90;;;;;;5051118;28;20037;-74
2022/09/12 10:19:39;;;;;;;2.20;1.73;;;15.40;68.90;;;;;;5049425;28;20065;-74
2022/09/12 10:22:06;;;;;;;2.30;1.70;;;15.10;67.70;;;;;;5051028;28;20056;-74
2022/09/12 10:24:42;;;;;;;1.65;1.40;;;15.30;69.50;;;;;;5050811;28;20087;-74
2022/09/12 10:27:11;;;;;;;3.22;1.67;;;15.30;69.50;;;;;;5051014;28;20020;-74
2022/09/12 10:30:08;;;;;;;3.47;2.45;;;15.20;73.50;;;;;;5050695;28;20052;-74
2022/09/12 10:32:41;;;;;;;2.05;1.85;;;15.60;76.90;;;;;;5049236;28;20136;-74
2022/09/12 10:35:17;;;;;;;3.97;1.73;;;15.80;72.70;;;;;;5050752;28;20110;-74
2022/09/12 10:37:58;;;;;;;3.13;1.83;;;15.80;71.10;;;;;;5050538;28;20056;-74
2022/09/12 10:40:28;;;;;;;2.40;1.88;;;15.10;68.30;;;;;;5050586;28;20096;-74
2022/09/12 10:42:56;;;;;;;2.60;1.55;;;14.90;68.70;;;;;;5049402;28;20424;-73
2022/09/12 10:45:28;;;;;;;2.80;1.70;;;14.80;68.70;;;;;;5049191;28;20056;-74
2022/09/12 10:47:58;;;;;;;2.58;1.88;;;14.90;69.70;;;;;;5048640;28;20021;-74
2022/09/12 10:50:35;;;;;;;1.85;1.35;;;14.90;72.10;;;;;;5030764;28;20075;-74
2022/09/12 10:53:23;;;;;;;1.80;1.55;;;15.00;73.70;;;;;;5030552;27;20090;-74
2022/09/12 10:56:12;;;;;;;5.00;1.58;;;15.40;70.40;;;;;;5029164;28;20033;-74
2022/09/12 10:59:01;;;;;;;1.92;1.38;;;15.70;70.10;;;;;;5029200;28;20189;-74
2022/09/12 11:01:43;;;;;;;2.75;1.77;;;15.80;68.00;;;;;;5030802;28;20030;-74
2022/09/12 11:04:27;;;;;;;2.77;1.80;;;16.00;70.30;;;;;;5030234;28;20482;-74
2022/09/12 11:07:20;;;;;;;1.90;1.60;;;16.20;70.00;;;;;;5028142;28;20034;-74
2022/09/12 11:10:04;;;;;;;1.70;1.60;;;16.10;68.90;;;;;;5033444;28;20029;-74
2022/09/12 11:12:30;;;;;;;1.80;1.60;;;15.90;70.30;;;;;;5049077;28;20470;-74
2022/09/12 11:15:14;;;;;;;2.05;1.85;;;15.60;66.20;;;;;;5042371;28;20078;-73
2022/09/12 11:18:01;;;;;;;2.00;1.52;;;15.40;67.30;;;;;;5030709;28;20021;-74
2022/09/12 11:21:24;;;;;;;3.08;1.60;;;15.30;67.30;;;;;;5028655;28;20028;-74
2022/09/12 11:24:08;;;;;;;1.77;1.40;;;15.30;65.10;;;;;;5051365;28;20152;-73
2022/09/12 11:26:46;;;;;;;4.28;2.10;;;15.40;64.10;;;;;;5070000;28;20051;-74
2022/09/12 11:29:45;;;;;;;2.05;1.45;;;15.50;65.70;;;;;;5081486;28;20503;-74
2022/09/12 11:32:35;;;;;;;4.10;1.60;;;15.90;68.70;;;;;;5030176;28;20029;-74
2022/09/12 11:35:24;;;;;;;3.97;1.80;;;16.10;68.10;;;;;;5030098;28;20048;-73
2022/09/12 11:38:09;;;;;;;4.63;2.95;;;16.20;63.40;;;;;;5029107;28;20025;-74
2022/09/12 11:40:51;;;;;;;1.88;1.60;;;16.40;63.60;;;;;;5028407;28;20040;-74
2022/09/12 11:43:41;;;;;;;3.30;1.43;;;16.30;62.20;;;;;;5030128;28;20387;-75
2022/09/12 11:46:30;;;;;;;1.52;1.38;;;16.20;64.10;;;;;;5030145;28;20313;-73
2022/09/12 11:48:56;;;;;;;1.85;1.60;;;16.20;64.10;;;;;;5037272;28;20014;-73
2022/09/12 11:51:50;;;;;;;3.10;1.55;;;16.40;63.80;;;;;;5030294;28;20085;-74
2022/09/12 11:54:56;;;;;;;1.73;1.63;;;16.60;62.70;;;;;;5029811;28;20025;-74
2022/09/12 11:57:54;;;;;;;3.20;1.35;;;16.70;61.70;;;;;;5030025;28;20108;-74
2022/09/12 12:00:43;;;;;;;2.47;1.70;;;16.50;58.60;;;;;;5029646;28;20041;-73
2022/09/12 12:03:27;;;;;;;1.77;1.67;;;16.60;60.80;;;;;;5030284;28;20403;-74
2022/09/12 12:06:03;;;;;;;3.28;1.83;;;16.50;62.30;;;;;;5029425;28;20028;-74
2022/09/12 12:08:30;;;;;;;3.60;2.17;;;16.50;61.30;;;;;;5029943;28;20026;-74
2022/09/12 12:11:02;;;;;;;2.00;1.52;;;16.30;61.50;;;;;;5042334;28;20069;-74
2022/09/12 12:13:32;;;;;;;5.03;1.63;;;16.20;62.30;;;;;;5049005;28;20022;-74
2022/09/12 12:16:25;;;;;;;1.63;1.42;;;16.30;61.00;;;;;;5028530;28;20040;-74
2022/09/12 12:19:03;;;;;;;3.28;1.75;;;16.40;60.90;;;;;;5033466;28;20122;-74
2022/09/12 12:21:42;;;;;;;2.05;1.95;;;16.10;60.90;;;;;;5032122;28;20082;-74
2022/09/12 12:24:08;;;;;;;1.88;1.58;;;16.20;62.80;;;;;;5031364;28;20026;-74
2022/09/12 12:26:39;;;;;;;3.80;1.70;;;16.10;61.90;;;;;;5031656;28;20129;-74
2022/09/12 12:29:18;;;;;;;4.75;1.85;;;16.20;61.00;;;;;;5031309;28;20489;-74
2022/09/12 12:31:59;;;;;;;3.53;2.13;;;16.20;60.00;;;;;;5033111;28;20506;-74
2022/09/12 12:34:36;;;;;;;1.92;1.50;;;16.50;62.90;;;;;;5031394;28;20021;-74
2022/09/12 12:37:21;;;;;;;3.33;2.33;;;16.80;63.10;;;;;;5032568;28;20028;-74
2022/09/12 12:39:50;;;;;;;4.47;2.00;;;17.10;63.20;;;;;;5032500;28;20029;-74
2022/09/12 12:45:28;;;;;;;2.35;2.10;;;17.30;61.00;;;;;;5032644;28;20041;-74
2022/09/12 12:48:15;;;;;;;3.15;1.73;;;17.30;60.00;;;;;;5037617;28;20065;-74
2022/09/12 12:50:41;;;;;;;1.70;1.60;;;17.40;60.40;;;;;;5037102;28;20505;-74
2022/09/12 12:53:24;;;;;;;4.32;1.90;;;17.50;61.10;;;;;;5032677;28;20037;-74
2022/09/12 12:55:53;;;;;;;2.40;2.20;;;17.50;59.10;;;;;;5030954;28;20117;-74
2022/09/12 12:58:28;;;;;;;5.00;1.98;;;17.40;59.20;;;;;;5032359;28;20509;-74
2022/09/12 13:01:08;;;;;;;2.63;1.50;;;17.40;61.60;;;;;;5031955;28;20433;-74
2022/09/12 13:03:36;;;;;;;3.15;2.67;;;17.20;59.30;;;;;;5032318;28;20040;-74
2022/09/12 13:06:06;;;;;;;2.25;1.60;;;17.30;60.10;;;;;;5032030;28;20378;-74
2022/09/12 13:08:39;;;;;;;2.10;1.90;;;17.20;59.50;;;;;;5032369;28;20029;-74
2022/09/12 13:11:25;;;;;;;2.20;2.00;;;17.30;59.80;;;;;;5048340;28;20104;-74
2022/09/12 13:14:04;;;;;;;4.43;1.75;;;17.00;58.60;;;;;;5052373;28;20070;-74